(°C)
20°
19°
18°
17°
15°
14°
13°
(°C)
17°
16°
16°
15°
13°
12°
11°
ZJZ
ZJZ
ZJZ
Z
ZSZ
SZ
SSZ
(km/h)
10-22
8-18
6-14
5-11
4-9
3-7
3-6
(mm)
0
0
0
0
0
0
0
(%)
1
0
0
0
0
0
0

Výška Slnka nad obzorom

/ 17.1°
sun-icon
UV 5
05:19
20:51
Ubúdajúci kosáčik (303°)
03:32
15:59

Správy METAR pre lokalitu Renton (KRNT)

Čas Podmienky Teplota/
Rosný bod
Vietor Viditeľnosť Počasie Oblaky Tlak Zmeniť Nespracované
VFR 20.6°C / 7.8°C variable 5kt >10km - Few Clouds 4000ft 1015 - KRNT 260053Z VRB05KT 10SM FEW040 21/08 A2997 RMK AO2 SLP154 T02060078
VFR 21.1°C / 7.8°C >10km - Clear 1015 - KRNT 252353Z 10SM CLR 21/08 A2998 RMK AO2 SLP158 T02110078 10217 20172 58009
VFR 21.1°C / 7.8°C 190º 7kt Gust 16kt >10km - Clear 1016 - KRNT 252253Z 19007G16KT 10SM CLR 21/08 A3000 RMK AO2 SLP163 T02110078
VFR 21.1°C / 7.8°C 200º 9kt Gust 18kt >10km - Few Clouds 4000ft 1016 - KRNT 252153Z 20009G18KT 10SM FEW040 21/08 A3000 RMK AO2 SLP165 T02110078
VFR 20°C / 8.9°C 210º 8kt Gust 17kt >10km - Clear 1016 - KRNT 252053Z 21008G17KT 10SM CLR 20/09 A3001 RMK AO2 SLP167 T02000089 58002
VFR 19.4°C / 9.4°C 210º variable 160º to 230º 7kt Gust 16kt >10km - Scattered Clouds 3500ft 1016 - KRNT 251953Z 21007G16KT 160V230 10SM SCT035 19/09 A3002 RMK AO2 SLP169 T01940094
VFR 18.3°C / 8.9°C 220º 8kt Gust 18kt >10km - Clear 1017 - KRNT 251853Z 22008G18KT 10SM CLR 18/09 A3002 RMK AO2 SLP170 T01830089
VFR 16.7°C / 9.4°C 190º 10kt Gust 19kt >10km - Few Clouds 2600ft
Broken Clouds 3700ft
1016 - KRNT 251753Z 19010G19KT 10SM FEW026 BKN037 17/09 A3002 RMK AO2 SLP169 60000 T01670094 10167 20117 53005
VFR 16.1°C / 10°C 190º 8kt Gust 16kt >10km - Few Clouds 2200ft
Broken Clouds 3500ft
- KRNT 251724Z 19008G16KT 10SM FEW022 BKN035 16/10 A3002 RMK AO2 T01610100
MVFR 15.6°C / 10.6°C 190º 6kt Gust 17kt >10km - Broken Clouds 2200ft
Broken Clouds 2700ft
1016 - KRNT 251653Z 19006G17KT 10SM BKN022 BKN027 16/11 A3001 RMK AO2 SLP166 T01560106
MVFR 15.6°C / 11.1°C 190º 7kt >10km - Scattered Clouds 1800ft
Broken Clouds 2700ft
- KRNT 251634Z 19007KT 10SM SCT018 BKN027 16/11 A3000 RMK AO2 T01560111
MVFR 14.4°C / 11.1°C 170º 9kt >10km - Few Clouds 1600ft
Broken Clouds 3000ft
- KRNT 251614Z 17009KT 10SM FEW016 BKN030 14/11 A3000 RMK AO2 T01440111
MVFR 13.3°C / 11.1°C 160º 5kt >10km - Few Clouds 1200ft
Overcast 2900ft
1016 - KRNT 251553Z 16005KT 10SM FEW012 OVC029 13/11 A3001 RMK AO2 SLP166 T01330111
MVFR 13.3°C / 10.6°C 150º 4kt >10km - Broken Clouds 2700ft
Overcast 3300ft
- KRNT 251500Z 15004KT 10SM BKN027 OVC033 13/11 A3000 RMK AO2 T01330106
VFR 13°C / 11°C 170º 4kt >10km - Scattered Clouds 2700ft
Broken Clouds 3300ft
Overcast 9000ft
- KRNT 251449Z 17004KT 10SM SCT027 BKN033 OVC090 13/11 A3000 RMK AO2
MVFR 12.8°C / 10.6°C 170º 5kt >10km - Few Clouds 1300ft
Broken Clouds 2800ft
Overcast 3400ft
- KRNT 251425Z 17005KT 10SM FEW013 BKN028 OVC034 13/11 A2999 RMK AO2 T01280106
MVFR 12.2°C / 10.6°C 150º 4kt >10km - Few Clouds 1100ft
Overcast 3000ft
- KRNT 251408Z 15004KT 10SM FEW011 OVC030 12/11 A2999 RMK AO2 T01220106
MVFR 12.2°C / 10.6°C 130º 4kt >10km 0.13mm precipitation Broken Clouds 1000ft
Overcast 3000ft
1015 - KRNT 251353Z 13004KT 9SM BKN010 OVC030 12/11 A2999 RMK AO2 RAB31E52 SLP159 P0000 T01220106
MVFR 12°C / 11°C variable 4kt >10km Light Rain 0.13mm precipitation Scattered Clouds 1000ft
Overcast 3000ft
- KRNT 251349Z VRB04KT 8SM -RA SCT010 OVC030 12/11 A2999 RMK AO2 RAB31 P0000
MVFR 12.2°C / 10.6°C 150º 4kt >10km - Broken Clouds 1000ft
Broken Clouds 1400ft
Overcast 2600ft
- KRNT 251330Z 15004KT 10SM BKN010 BKN014 OVC026 12/11 A2999 RMK AO2 T01220106
MVFR 11.7°C / 10°C 140º 5kt >10km - Scattered Clouds 900ft
Overcast 2500ft
1015 - KRNT 251253Z 14005KT 10SM SCT009 OVC025 12/10 A2998 RMK AO2 SLP155 T01170100
MVFR 11.7°C / 10°C 150º 4kt >10km - Scattered Clouds 900ft
Overcast 2500ft
- KRNT 251246Z 15004KT 10SM SCT009 OVC025 12/10 A2997 RMK AO2 T01170100
IFR 11.7°C / 10°C variable 4kt >10km - Overcast 800ft - KRNT 251227Z VRB04KT 8SM OVC008 12/10 A2997 RMK AO2 CIG 005V012 T01170100
IFR 11.7°C / 10°C 150º variable 005º to 010º 3kt >10km - Broken Clouds 700ft
Broken Clouds 1100ft
Overcast 2200ft
- KRNT 251200Z 15003KT 8SM BKN007 BKN011 OVC022 12/10 A2998 RMK AO2 CIG 005V010 T01170100

VFR

20.6°C / 7.8°C

[Viac]
Vietor variable 5kt
Viditeľnosť >10km
Počasie -
Oblaky Few Clouds 4000ft
Tlak 1015
Zmeniť -
Nespracované KRNT 260053Z VRB05KT 10SM FEW040 21/08 A2997 RMK AO2 SLP154 T02060078

VFR

21.1°C / 7.8°C

[Viac]
Vietor
Viditeľnosť >10km
Počasie -
Oblaky Clear
Tlak 1015
Zmeniť -
Nespracované KRNT 252353Z 10SM CLR 21/08 A2998 RMK AO2 SLP158 T02110078 10217 20172 58009

VFR

21.1°C / 7.8°C

[Viac]
Vietor 190º 7kt Gust 16kt
Viditeľnosť >10km
Počasie -
Oblaky Clear
Tlak 1016
Zmeniť -
Nespracované KRNT 252253Z 19007G16KT 10SM CLR 21/08 A3000 RMK AO2 SLP163 T02110078

VFR

21.1°C / 7.8°C

[Viac]
Vietor 200º 9kt Gust 18kt
Viditeľnosť >10km
Počasie -
Oblaky Few Clouds 4000ft
Tlak 1016
Zmeniť -
Nespracované KRNT 252153Z 20009G18KT 10SM FEW040 21/08 A3000 RMK AO2 SLP165 T02110078

VFR

20°C / 8.9°C

[Viac]
Vietor 210º 8kt Gust 17kt
Viditeľnosť >10km
Počasie -
Oblaky Clear
Tlak 1016
Zmeniť -
Nespracované KRNT 252053Z 21008G17KT 10SM CLR 20/09 A3001 RMK AO2 SLP167 T02000089 58002

VFR

19.4°C / 9.4°C

[Viac]
Vietor 210º variable 160º to 230º 7kt Gust 16kt
Viditeľnosť >10km
Počasie -
Oblaky Scattered Clouds 3500ft
Tlak 1016
Zmeniť -
Nespracované KRNT 251953Z 21007G16KT 160V230 10SM SCT035 19/09 A3002 RMK AO2 SLP169 T01940094

VFR

18.3°C / 8.9°C

[Viac]
Vietor 220º 8kt Gust 18kt
Viditeľnosť >10km
Počasie -
Oblaky Clear
Tlak 1017
Zmeniť -
Nespracované KRNT 251853Z 22008G18KT 10SM CLR 18/09 A3002 RMK AO2 SLP170 T01830089

VFR

16.7°C / 9.4°C

[Viac]
Vietor 190º 10kt Gust 19kt
Viditeľnosť >10km
Počasie -
Oblaky Few Clouds 2600ft
Broken Clouds 3700ft
Tlak 1016
Zmeniť -
Nespracované KRNT 251753Z 19010G19KT 10SM FEW026 BKN037 17/09 A3002 RMK AO2 SLP169 60000 T01670094 10167 20117 53005

VFR

16.1°C / 10°C

[Viac]
Vietor 190º 8kt Gust 16kt
Viditeľnosť >10km
Počasie -
Oblaky Few Clouds 2200ft
Broken Clouds 3500ft
Tlak
Zmeniť -
Nespracované KRNT 251724Z 19008G16KT 10SM FEW022 BKN035 16/10 A3002 RMK AO2 T01610100

MVFR

15.6°C / 10.6°C

[Viac]
Vietor 190º 6kt Gust 17kt
Viditeľnosť >10km
Počasie -
Oblaky Broken Clouds 2200ft
Broken Clouds 2700ft
Tlak 1016
Zmeniť -
Nespracované KRNT 251653Z 19006G17KT 10SM BKN022 BKN027 16/11 A3001 RMK AO2 SLP166 T01560106

MVFR

15.6°C / 11.1°C

[Viac]
Vietor 190º 7kt
Viditeľnosť >10km
Počasie -
Oblaky Scattered Clouds 1800ft
Broken Clouds 2700ft
Tlak
Zmeniť -
Nespracované KRNT 251634Z 19007KT 10SM SCT018 BKN027 16/11 A3000 RMK AO2 T01560111

MVFR

14.4°C / 11.1°C

[Viac]
Vietor 170º 9kt
Viditeľnosť >10km
Počasie -
Oblaky Few Clouds 1600ft
Broken Clouds 3000ft
Tlak
Zmeniť -
Nespracované KRNT 251614Z 17009KT 10SM FEW016 BKN030 14/11 A3000 RMK AO2 T01440111

MVFR

13.3°C / 11.1°C

[Viac]
Vietor 160º 5kt
Viditeľnosť >10km
Počasie -
Oblaky Few Clouds 1200ft
Overcast 2900ft
Tlak 1016
Zmeniť -
Nespracované KRNT 251553Z 16005KT 10SM FEW012 OVC029 13/11 A3001 RMK AO2 SLP166 T01330111

MVFR

13.3°C / 10.6°C

[Viac]
Vietor 150º 4kt
Viditeľnosť >10km
Počasie -
Oblaky Broken Clouds 2700ft
Overcast 3300ft
Tlak
Zmeniť -
Nespracované KRNT 251500Z 15004KT 10SM BKN027 OVC033 13/11 A3000 RMK AO2 T01330106

VFR

13°C / 11°C

[Viac]
Vietor 170º 4kt
Viditeľnosť >10km
Počasie -
Oblaky Scattered Clouds 2700ft
Broken Clouds 3300ft
Overcast 9000ft
Tlak
Zmeniť -
Nespracované KRNT 251449Z 17004KT 10SM SCT027 BKN033 OVC090 13/11 A3000 RMK AO2

MVFR

12.8°C / 10.6°C

[Viac]
Vietor 170º 5kt
Viditeľnosť >10km
Počasie -
Oblaky Few Clouds 1300ft
Broken Clouds 2800ft
Overcast 3400ft
Tlak
Zmeniť -
Nespracované KRNT 251425Z 17005KT 10SM FEW013 BKN028 OVC034 13/11 A2999 RMK AO2 T01280106

MVFR

12.2°C / 10.6°C

[Viac]
Vietor 150º 4kt
Viditeľnosť >10km
Počasie -
Oblaky Few Clouds 1100ft
Overcast 3000ft
Tlak
Zmeniť -
Nespracované KRNT 251408Z 15004KT 10SM FEW011 OVC030 12/11 A2999 RMK AO2 T01220106

MVFR

12.2°C / 10.6°C

[Viac]
Vietor 130º 4kt
Viditeľnosť >10km
Počasie 0.13mm precipitation
Oblaky Broken Clouds 1000ft
Overcast 3000ft
Tlak 1015
Zmeniť -
Nespracované KRNT 251353Z 13004KT 9SM BKN010 OVC030 12/11 A2999 RMK AO2 RAB31E52 SLP159 P0000 T01220106

MVFR

12°C / 11°C

[Viac]
Vietor variable 4kt
Viditeľnosť >10km
Počasie Light Rain 0.13mm precipitation
Oblaky Scattered Clouds 1000ft
Overcast 3000ft
Tlak
Zmeniť -
Nespracované KRNT 251349Z VRB04KT 8SM -RA SCT010 OVC030 12/11 A2999 RMK AO2 RAB31 P0000

MVFR

12.2°C / 10.6°C

[Viac]
Vietor 150º 4kt
Viditeľnosť >10km
Počasie -
Oblaky Broken Clouds 1000ft
Broken Clouds 1400ft
Overcast 2600ft
Tlak
Zmeniť -
Nespracované KRNT 251330Z 15004KT 10SM BKN010 BKN014 OVC026 12/11 A2999 RMK AO2 T01220106

MVFR

11.7°C / 10°C

[Viac]
Vietor 140º 5kt
Viditeľnosť >10km
Počasie -
Oblaky Scattered Clouds 900ft
Overcast 2500ft
Tlak 1015
Zmeniť -
Nespracované KRNT 251253Z 14005KT 10SM SCT009 OVC025 12/10 A2998 RMK AO2 SLP155 T01170100

MVFR

11.7°C / 10°C

[Viac]
Vietor 150º 4kt
Viditeľnosť >10km
Počasie -
Oblaky Scattered Clouds 900ft
Overcast 2500ft
Tlak
Zmeniť -
Nespracované KRNT 251246Z 15004KT 10SM SCT009 OVC025 12/10 A2997 RMK AO2 T01170100

IFR

11.7°C / 10°C

[Viac]
Vietor variable 4kt
Viditeľnosť >10km
Počasie -
Oblaky Overcast 800ft
Tlak
Zmeniť -
Nespracované KRNT 251227Z VRB04KT 8SM OVC008 12/10 A2997 RMK AO2 CIG 005V012 T01170100

IFR

11.7°C / 10°C

[Viac]
Vietor 150º variable 005º to 010º 3kt
Viditeľnosť >10km
Počasie -
Oblaky Broken Clouds 700ft
Broken Clouds 1100ft
Overcast 2200ft
Tlak
Zmeniť -
Nespracované KRNT 251200Z 15003KT 8SM BKN007 BKN011 OVC022 12/10 A2998 RMK AO2 CIG 005V010 T01170100

Radar a krátkodobá predpoveď zrážok pre Renton

Mrholenie
Slabý
Mierne
Ťažké
Veľmi ťažké
Krúpy

Značka polohy je umiestnená na Renton. Táto animácia ukazuje zrážky pozorované radarom za poslednú hodinu a tiež 1h predpoveď. Mrholenie alebo slabé sneženie môže byť pre radar neviditeľné. Intenzita zrážok je farebne označená od svetlomodrej po oranžovú.

Aktuálne satelitné snímky pre lokalitu Renton, Spojené štáty americké

Značka polohy je umiestnená naRenton. [Viac]

Satelitné snímky zhotovované v reálnom čase využívajú viditeľné svetlo počas dňa a infračervené žiarenie počas noci. Vzhľadom na to, že infračervené žiarenie zisťuje teplotné rozdiely, snímka v noci nie je tmavá. Nízke oblaky a hmlu je, žiaľ, ťažké odlíšiť od prízemných teplôt, preto môžu byť počas noci takmer neviditeľné. Meteosat satelitné snímky pre Európu sú aktualizované v reálnom čase každých 5 minút. Snímky z GOES-16/GOES-17 (Severná a Južná Amerika) a Himawari (Ázia) sú aktualizované každých 10 minút.

Späť nahor